Terminal Aerodrome Forecast
Issued by NWS

Home | Current Version | Previous Version | Text Only | Print | Product List | Glossary On
Versions: 1 2 3 4 5 6 7 8 9 10 11 12 13 14 15 16 17 18 19
000
FTUS43 KSGF 260027 AAA
TAFJLN
TAF AMD
KJLN 260027Z 2600/2624 36007KT P6SM VCSH BKN025
      TEMPO 2600/2603 6SM -RA OVC025
     FM260300 34007KT P6SM OVC030
     FM260600 35006KT P6SM BKN100
     FM261200 36008KT P6SM SKC=

USA.gov is the U.S. government's official web portal to all federal, state and local government web resources and services.